Terminal Aerodrome Forecast
Issued by NWS

Current Version | Previous Version | Text Only | Print | Product List | Glossary On
Versions: 1 2 3 4 5 6 7 8 9 10 11 12 13 14 15 16 17 18 19 20 21 22
000
FTUS42 TJSJ 151120
TAFKPK
TAF
TKPK 151120Z 1512/1612 10007KT P6SM VCSH SCT019 SCT035
     FM151400 10013KT P6SM FEW022 SCT050
     FM152130 07008KT P6SM VCSH SCT019 SCT035=

USA.gov is the U.S. government's official web portal to all federal, state and local government web resources and services.